Time;durP1;ratioP1;P1;durP2;ratioP2;P2;SDS_P1;SDS_P2;PMS_P1;PMS_P2;Temp;Humidity;BMP_temperature;BMP_pressure;BME280_temperature;BME280_humidity;BME280_pressure;Samples;Min_cycle;Max_cycle;Signal;HPM_P1;HPM_P2
2021/06/05 00:01:51;;;;;;;3.13;2.60;;;17.10;99.90;;;;;;5138485;27;20198;-38
2021/06/05 00:04:20;;;;;;;4.27;2.80;;;17.10;99.90;;;;;;5138847;27;20599;-37
2021/06/05 00:06:46;;;;;;;3.17;2.40;;;17.10;99.90;;;;;;5139196;27;20745;-36
2021/06/05 00:09:13;;;;;;;2.73;2.20;;;17.00;99.90;;;;;;5103330;27;20483;-38
2021/06/05 00:11:39;;;;;;;3.63;2.43;;;17.00;99.90;;;;;;5138716;27;20412;-37
2021/06/05 00:14:07;;;;;;;3.53;2.33;;;17.00;99.90;;;;;;5138120;27;20891;-37
2021/06/05 00:16:39;;;;;;;3.57;2.23;;;17.00;99.90;;;;;;5138685;27;20287;-38
2021/06/05 00:19:05;;;;;;;3.60;2.40;;;17.10;99.90;;;;;;5138450;27;20481;-38
2021/06/05 00:21:31;;;;;;;4.40;2.43;;;17.10;99.90;;;;;;5138206;27;20773;-38
2021/06/05 00:23:57;;;;;;;2.40;2.20;;;17.10;99.90;;;;;;5120308;27;20593;-38
2021/06/05 00:26:23;;;;;;;4.83;2.33;;;17.10;99.90;;;;;;5138175;27;20420;-37
2021/06/05 00:28:49;;;;;;;3.93;2.70;;;17.10;99.90;;;;;;5137759;27;20423;-37
2021/06/05 00:31:15;;;;;;;4.53;2.70;;;17.20;99.90;;;;;;5138043;27;20413;-37
2021/06/05 00:33:40;;;;;;;3.90;2.80;;;17.20;99.90;;;;;;5138081;27;20294;-36
2021/06/05 00:36:08;;;;;;;2.87;2.47;;;17.20;99.90;;;;;;5137883;27;20525;-37
2021/06/05 00:38:36;;;;;;;3.23;2.30;;;17.10;99.90;;;;;;5138102;27;20299;-37
2021/06/05 00:41:03;;;;;;;5.17;2.90;;;16.90;99.90;;;;;;5137571;27;20420;-37
2021/06/05 00:43:34;;;;;;;4.50;2.77;;;16.80;99.90;;;;;;5119426;27;20420;-37
2021/06/05 00:45:59;;;;;;;2.70;2.50;;;16.70;99.90;;;;;;5119546;27;20855;-37
2021/06/05 00:48:25;;;;;;;2.87;2.30;;;16.70;99.90;;;;;;5137787;27;20408;-37
2021/06/05 00:50:51;;;;;;;3.50;2.37;;;16.40;99.90;;;;;;5137456;27;20198;-36
2021/06/05 00:53:19;;;;;;;3.00;2.17;;;16.40;99.90;;;;;;5137239;27;20206;-37
2021/06/05 00:55:48;;;;;;;4.07;2.30;;;16.40;99.90;;;;;;5137678;27;20498;-35
2021/06/05 00:58:15;;;;;;;3.97;2.67;;;16.40;99.90;;;;;;5137973;27;20432;-36
2021/06/05 01:00:42;;;;;;;2.87;2.57;;;16.50;99.90;;;;;;5137469;27;20433;-36
2021/06/05 01:03:08;;;;;;;2.17;1.93;;;16.60;99.90;;;;;;5119480;27;20472;-36
2021/06/05 01:05:36;;;;;;;3.50;2.70;;;16.60;99.90;;;;;;5119697;27;20463;-36
2021/06/05 01:08:31;;;;;;;2.47;2.03;;;16.60;99.90;;;;;;5137965;27;20462;-36
2021/06/05 01:11:08;;;;;;;1.97;1.83;;;16.60;99.90;;;;;;5107695;27;20437;-37
2021/06/05 01:13:51;;;;;;;2.40;2.20;;;16.60;99.90;;;;;;5118156;28;20574;-37
2021/06/05 01:16:19;;;;;;;2.43;2.20;;;16.50;99.90;;;;;;5117895;28;20476;-36
2021/06/05 01:19:09;;;;;;;3.27;2.40;;;16.50;99.90;;;;;;5136193;27;20419;-36
2021/06/05 01:22:16;;;;;;;2.50;2.30;;;16.50;99.90;;;;;;5118396;28;20758;-36
2021/06/05 01:25:10;;;;;;;3.23;2.07;;;16.50;99.90;;;;;;5080217;28;20501;-37
2021/06/05 01:27:40;;;;;;;3.37;2.53;;;16.60;99.90;;;;;;5119371;28;20409;-37
2021/06/05 01:30:16;;;;;;;3.33;2.07;;;16.70;99.90;;;;;;5119725;28;20706;-36
2021/06/05 01:32:42;;;;;;;5.77;3.03;;;16.70;99.90;;;;;;5119681;28;20497;-36
2021/06/05 01:35:11;;;;;;;2.10;1.90;;;16.80;99.90;;;;;;5137719;28;20432;-36
2021/06/05 01:37:37;;;;;;;2.07;1.87;;;16.80;99.90;;;;;;5137893;28;20401;-38
2021/06/05 01:40:05;;;;;;;3.23;2.60;;;16.90;99.90;;;;;;5120152;28;20437;-37
2021/06/05 01:42:34;;;;;;;2.63;2.30;;;16.90;99.90;;;;;;5120607;28;20431;-36
2021/06/05 01:45:00;;;;;;;2.93;1.90;;;16.90;99.90;;;;;;5138020;28;20721;-36
2021/06/05 01:47:26;;;;;;;4.70;2.27;;;17.00;99.90;;;;;;5137729;28;20412;-37
2021/06/05 01:49:52;;;;;;;2.77;2.37;;;17.00;99.90;;;;;;5137565;28;20428;-36
2021/06/05 01:52:22;;;;;;;2.50;2.00;;;17.00;99.90;;;;;;5119712;28;20404;-37
2021/06/05 01:55:20;;;;;;;2.57;1.90;;;17.00;99.90;;;;;;5119645;28;20190;-37
2021/06/05 01:57:52;;;;;;;2.50;2.03;;;16.90;99.90;;;;;;5137573;28;20428;-37
2021/06/05 02:00:28;;;;;;;3.03;2.00;;;16.90;99.90;;;;;;5119182;28;20520;-36
2021/06/05 02:02:54;;;;;;;4.67;2.00;;;16.90;99.90;;;;;;5138279;28;20435;-37
2021/06/05 02:05:22;;;;;;;2.77;1.70;;;16.90;99.90;;;;;;5137780;28;20842;-37
2021/06/05 02:07:52;;;;;;;2.27;1.80;;;16.90;99.90;;;;;;5137718;28;20413;-37
2021/06/05 02:10:19;;;;;;;2.30;2.00;;;16.90;99.90;;;;;;5138057;28;20440;-36
2021/06/05 02:12:44;;;;;;;4.37;2.60;;;16.90;99.90;;;;;;5120012;28;20460;-37
2021/06/05 02:15:22;;;;;;;2.20;2.00;;;16.90;99.90;;;;;;5137698;28;20470;-37
2021/06/05 02:17:48;;;;;;;3.37;2.30;;;16.90;99.90;;;;;;5138521;27;20230;-37
2021/06/05 02:20:19;;;;;;;2.67;2.37;;;16.90;99.90;;;;;;5142328;27;20460;-37
2021/06/05 02:22:46;;;;;;;2.53;1.83;;;16.90;99.90;;;;;;5123642;27;20416;-35
2021/06/05 02:25:14;;;;;;;2.20;2.00;;;16.90;99.90;;;;;;5141577;27;20540;-37
2021/06/05 02:27:40;;;;;;;2.53;2.30;;;16.90;99.90;;;;;;5141714;27;20473;-35
2021/06/05 02:30:10;;;;;;;2.13;1.57;;;16.90;99.90;;;;;;5122950;27;20826;-35
2021/06/05 02:32:37;;;;;;;3.73;1.70;;;16.90;99.90;;;;;;5141786;27;20536;-35
2021/06/05 02:35:07;;;;;;;3.37;2.10;;;16.90;99.90;;;;;;5123443;27;20451;-35
2021/06/05 02:37:32;;;;;;;1.90;1.77;;;16.90;99.90;;;;;;5140269;27;20527;-35
2021/06/05 02:40:03;;;;;;;2.63;1.97;;;16.90;99.90;;;;;;5121539;27;20531;-35
2021/06/05 02:42:28;;;;;;;2.47;1.70;;;16.90;99.90;;;;;;5121294;27;20464;-35
2021/06/05 02:44:56;;;;;;;2.73;2.10;;;16.90;99.90;;;;;;5139329;27;20437;-36
2021/06/05 02:47:24;;;;;;;2.10;1.80;;;17.00;99.90;;;;;;5139765;27;20170;-36
2021/06/05 02:49:50;;;;;;;3.20;2.10;;;16.90;99.90;;;;;;5120726;27;20432;-36
2021/06/05 02:52:30;;;;;;;2.07;1.80;;;16.90;99.90;;;;;;5140405;27;20419;-35
2021/06/05 02:55:10;;;;;;;2.90;2.20;;;16.90;99.90;;;;;;5123926;27;20714;-36
2021/06/05 02:57:36;;;;;;;1.87;1.77;;;16.90;99.90;;;;;;5140578;27;20480;-36
2021/06/05 03:00:11;;;;;;;5.00;1.80;;;16.90;99.90;;;;;;5140615;27;20421;-35
2021/06/05 03:02:37;;;;;;;3.07;2.23;;;16.70;99.90;;;;;;5139505;27;20522;-36
2021/06/05 03:05:04;;;;;;;2.27;1.83;;;16.70;99.90;;;;;;5139143;27;20523;-35
2021/06/05 03:07:29;;;;;;;2.30;2.07;;;16.70;99.90;;;;;;5139229;27;20274;-35
2021/06/05 03:09:55;;;;;;;1.60;1.50;;;16.50;99.90;;;;;;5139916;27;20877;-36
2021/06/05 03:12:20;;;;;;;2.33;1.97;;;16.50;99.90;;;;;;5139200;27;20171;-36
2021/06/05 03:14:46;;;;;;;4.00;2.00;;;16.50;99.90;;;;;;5139233;27;20477;-35
2021/06/05 03:17:12;;;;;;;3.63;2.37;;;16.40;99.90;;;;;;5140580;27;20221;-36
2021/06/05 03:19:38;;;;;;;3.43;2.30;;;16.30;99.90;;;;;;5140299;27;20175;-36
2021/06/05 03:22:05;;;;;;;2.57;1.83;;;16.30;99.90;;;;;;5140675;27;20212;-35
2021/06/05 03:24:31;;;;;;;3.40;2.40;;;16.20;99.90;;;;;;5140214;27;20768;-35
2021/06/05 03:27:00;;;;;;;3.77;2.70;;;16.30;99.90;;;;;;5140152;27;20417;-35
2021/06/05 03:29:25;;;;;;;3.17;2.30;;;16.30;99.90;;;;;;5139982;27;20420;-36
2021/06/05 03:31:51;;;;;;;2.70;1.70;;;16.40;99.90;;;;;;5140624;27;20841;-36
2021/06/05 03:34:16;;;;;;;3.03;2.03;;;16.40;99.90;;;;;;5143707;27;20760;-36
2021/06/05 03:36:42;;;;;;;1.97;1.80;;;16.50;99.90;;;;;;5140206;27;20175;-36
2021/06/05 03:39:08;;;;;;;2.37;2.10;;;16.60;99.90;;;;;;5140019;27;20215;-36
2021/06/05 03:41:35;;;;;;;3.73;1.73;;;16.70;99.90;;;;;;5140428;27;20175;-36
2021/06/05 03:44:01;;;;;;;4.60;1.93;;;16.70;99.90;;;;;;5140336;27;20437;-36
2021/06/05 03:46:28;;;;;;;3.50;2.13;;;16.80;99.90;;;;;;5140033;27;20420;-37
2021/06/05 03:48:54;;;;;;;2.40;1.63;;;16.80;99.90;;;;;;5140042;27;20455;-36
2021/06/05 03:51:19;;;;;;;3.70;1.77;;;16.80;99.90;;;;;;5139859;27;20702;-36
2021/06/05 03:53:45;;;;;;;3.07;2.10;;;16.90;99.90;;;;;;5139624;27;20912;-36
2021/06/05 03:56:11;;;;;;;2.23;1.50;;;16.80;99.90;;;;;;5140006;27;20537;-35
2021/06/05 03:58:41;;;;;;;2.07;1.63;;;16.80;99.90;;;;;;5121542;27;20174;-36
2021/06/05 04:01:12;;;;;;;3.00;2.17;;;16.80;99.90;;;;;;5139842;27;20209;-37
2021/06/05 04:03:37;;;;;;;2.10;1.90;;;16.90;99.90;;;;;;5139254;27;20435;-36
2021/06/05 04:06:04;;;;;;;2.47;1.60;;;16.90;99.90;;;;;;5140005;27;20405;-36
2021/06/05 04:08:30;;;;;;;2.47;2.10;;;16.90;99.90;;;;;;5139427;27;20201;-36
2021/06/05 04:10:56;;;;;;;3.60;2.13;;;16.90;99.90;;;;;;5139623;27;20425;-36
2021/06/05 04:13:21;;;;;;;4.30;1.93;;;17.00;99.90;;;;;;5138985;27;20958;-36
2021/06/05 04:15:47;;;;;;;3.93;2.10;;;17.10;99.90;;;;;;5121337;27;20317;-39
2021/06/05 04:18:24;;;;;;;2.50;1.80;;;17.10;99.90;;;;;;5139513;27;20213;-35
2021/06/05 04:20:50;;;;;;;2.37;1.73;;;17.10;99.90;;;;;;5139441;27;20504;-36
2021/06/05 04:23:16;;;;;;;2.13;1.93;;;17.20;99.90;;;;;;5138908;27;20421;-36
2021/06/05 04:25:42;;;;;;;2.43;2.00;;;17.20;99.90;;;;;;5139117;27;20831;-36
2021/06/05 04:28:10;;;;;;;3.00;2.07;;;17.30;99.90;;;;;;5139173;27;20329;-36
2021/06/05 04:30:37;;;;;;;3.47;1.87;;;17.30;99.90;;;;;;5139934;27;20438;-36
2021/06/05 04:33:04;;;;;;;1.97;1.57;;;17.30;99.90;;;;;;5138935;27;20869;-36
2021/06/05 04:35:29;;;;;;;2.80;1.90;;;17.40;99.90;;;;;;5138944;27;20420;-36
2021/06/05 04:37:56;;;;;;;2.60;2.40;;;17.40;99.90;;;;;;5139108;27;20417;-36
2021/06/05 04:40:28;;;;;;;1.90;1.53;;;17.50;99.90;;;;;;5139547;27;20182;-36
2021/06/05 04:42:54;;;;;;;3.13;2.10;;;17.50;99.90;;;;;;5139028;27;20415;-36
2021/06/05 04:45:21;;;;;;;2.23;1.60;;;17.50;99.90;;;;;;5139365;27;20810;-37
2021/06/05 04:47:47;;;;;;;1.80;1.60;;;17.50;99.90;;;;;;5138450;27;20282;-36
2021/06/05 04:50:16;;;;;;;3.30;1.83;;;17.50;99.90;;;;;;5138277;27;20504;-36
2021/06/05 04:52:41;;;;;;;2.73;1.77;;;17.50;99.90;;;;;;5138758;27;20464;-36
2021/06/05 04:55:09;;;;;;;2.27;1.90;;;17.60;99.90;;;;;;5137829;27;20458;-36
2021/06/05 04:57:35;;;;;;;4.07;2.83;;;17.60;99.90;;;;;;5138050;27;20269;-37
2021/06/05 05:00:01;;;;;;;3.23;2.30;;;17.60;99.90;;;;;;5119766;27;20436;-36
2021/06/05 05:02:27;;;;;;;2.30;1.93;;;17.60;99.90;;;;;;5138093;27;20408;-36
2021/06/05 05:04:52;;;;;;;3.37;2.10;;;17.70;99.90;;;;;;5136478;27;20193;-36
2021/06/05 05:07:18;;;;;;;2.43;2.03;;;17.70;99.90;;;;;;5138090;27;20519;-37
2021/06/05 05:09:44;;;;;;;2.43;1.63;;;17.80;99.90;;;;;;5137810;27;20187;-38
2021/06/05 05:12:11;;;;;;;1.70;1.37;;;17.90;99.90;;;;;;5138839;27;20179;-37
2021/06/05 05:14:37;;;;;;;2.37;2.07;;;18.00;99.90;;;;;;5137865;27;20491;-36
2021/06/05 05:17:03;;;;;;;1.77;1.63;;;18.10;99.90;;;;;;5139864;27;20409;-39
2021/06/05 05:19:29;;;;;;;2.80;1.70;;;18.20;99.90;;;;;;5138207;27;20463;-36
2021/06/05 05:21:55;;;;;;;4.57;3.73;;;18.30;99.90;;;;;;5139515;27;20407;-36
2021/06/05 05:24:21;;;;;;;3.17;1.57;;;18.30;99.90;;;;;;5137523;28;20412;-35
2021/06/05 05:26:47;;;;;;;2.27;1.70;;;18.50;99.90;;;;;;5136846;28;20469;-36
2021/06/05 05:29:13;;;;;;;2.37;1.90;;;18.50;99.60;;;;;;5137061;28;20190;-36
2021/06/05 05:31:38;;;;;;;3.57;1.93;;;18.70;99.20;;;;;;5136567;28;20186;-36
2021/06/05 05:34:04;;;;;;;3.13;1.97;;;18.60;99.30;;;;;;5135392;28;20225;-36
2021/06/05 05:36:33;;;;;;;7.47;2.10;;;18.70;99.00;;;;;;5136984;28;20178;-36
2021/06/05 05:39:00;;;;;;;5.43;2.40;;;18.70;98.70;;;;;;5135585;28;20263;-36
2021/06/05 05:41:26;;;;;;;2.13;1.63;;;18.60;98.80;;;;;;5136785;28;20656;-36
2021/06/05 05:43:53;;;;;;;4.17;2.60;;;18.70;99.10;;;;;;5135937;28;20419;-36
2021/06/05 05:46:20;;;;;;;3.13;1.93;;;18.80;99.00;;;;;;5121002;28;20439;-37
2021/06/05 05:48:46;;;;;;;2.43;1.90;;;18.90;98.80;;;;;;5137803;28;20408;-36
2021/06/05 05:51:14;;;;;;;2.97;2.00;;;18.80;98.60;;;;;;5120403;28;20419;-37
2021/06/05 05:53:40;;;;;;;3.23;1.80;;;18.90;98.90;;;;;;5142148;27;20524;-36
2021/06/05 05:56:08;;;;;;;2.73;1.90;;;19.00;99.10;;;;;;5141756;27;20405;-36
2021/06/05 05:58:41;;;;;;;2.50;2.30;;;18.90;98.60;;;;;;5142568;27;20478;-37
2021/06/05 06:01:09;;;;;;;2.70;1.90;;;18.70;98.60;;;;;;5141046;27;20412;-36
2021/06/05 06:03:35;;;;;;;2.17;1.97;;;18.70;99.40;;;;;;5123773;27;20463;-36
2021/06/05 06:06:01;;;;;;;2.10;1.90;;;18.90;99.30;;;;;;5142071;27;20416;-36
2021/06/05 06:08:27;;;;;;;3.07;1.90;;;19.00;99.00;;;;;;5143147;27;20426;-36
2021/06/05 06:10:53;;;;;;;2.20;1.80;;;19.10;98.60;;;;;;5142714;27;20844;-35
2021/06/05 06:13:19;;;;;;;5.50;2.07;;;19.30;98.50;;;;;;5142018;27;20927;-36
2021/06/05 06:15:45;;;;;;;2.57;2.00;;;19.40;98.20;;;;;;5142741;27;20460;-36
2021/06/05 06:18:12;;;;;;;3.00;2.23;;;19.20;98.50;;;;;;5141106;27;20751;-36
2021/06/05 06:20:46;;;;;;;4.43;1.60;;;19.30;98.10;;;;;;5141303;27;20270;-35
2021/06/05 06:23:23;;;;;;;2.13;1.93;;;19.20;98.80;;;;;;5140627;27;20445;-36
2021/06/05 06:25:50;;;;;;;2.40;1.87;;;19.40;98.50;;;;;;5140976;27;20424;-36
2021/06/05 06:28:19;;;;;;;4.90;1.83;;;19.60;98.00;;;;;;5141866;27;20400;-36
2021/06/05 06:30:45;;;;;;;2.30;2.00;;;19.80;97.60;;;;;;5140972;27;20428;-35
2021/06/05 06:33:12;;;;;;;2.13;1.70;;;19.90;97.70;;;;;;5141337;27;20468;-36
2021/06/05 06:35:39;;;;;;;4.13;2.00;;;20.00;97.60;;;;;;5140434;27;20604;-36
2021/06/05 06:38:06;;;;;;;2.77;1.90;;;20.20;97.50;;;;;;5140111;27;20861;-36
2021/06/05 06:40:34;;;;;;;2.67;1.83;;;20.30;97.10;;;;;;5140073;27;20513;-37
2021/06/05 06:43:01;;;;;;;2.90;1.63;;;20.10;96.70;;;;;;5141247;27;20512;-36
2021/06/05 06:45:27;;;;;;;1.83;1.57;;;20.30;97.20;;;;;;5122869;27;20432;-36
2021/06/05 06:47:54;;;;;;;3.50;1.90;;;20.10;96.60;;;;;;5123644;27;20483;-36
2021/06/05 06:50:21;;;;;;;3.97;1.63;;;20.20;96.30;;;;;;5141064;27;20834;-36
2021/06/05 06:52:47;;;;;;;2.37;2.17;;;20.20;97.10;;;;;;5123210;27;20906;-36
2021/06/05 06:55:13;;;;;;;2.43;1.97;;;20.40;96.90;;;;;;5141093;27;20691;-37
2021/06/05 06:57:39;;;;;;;5.33;1.47;;;20.80;96.60;;;;;;5140541;27;20582;-36
2021/06/05 07:00:07;;;;;;;2.73;1.60;;;21.00;95.90;;;;;;5140817;27;20235;-36
2021/06/05 07:02:32;;;;;;;1.77;1.60;;;20.90;95.30;;;;;;5140689;27;20413;-36
2021/06/05 07:04:58;;;;;;;1.90;1.50;;;21.20;95.40;;;;;;5140651;27;20527;-37
2021/06/05 07:07:24;;;;;;;3.30;1.40;;;21.30;94.50;;;;;;5141809;27;20179;-38
2021/06/05 07:09:49;;;;;;;5.70;1.70;;;21.40;94.80;;;;;;5139065;27;20251;-36
2021/06/05 07:12:15;;;;;;;1.87;1.23;;;21.40;93.80;;;;;;5140595;27;20223;-36
2021/06/05 07:14:40;;;;;;;1.70;1.20;;;21.00;94.40;;;;;;5140104;27;20182;-36
2021/06/05 07:17:07;;;;;;;1.50;1.10;;;21.10;94.50;;;;;;5141071;27;20545;-34
2021/06/05 07:19:33;;;;;;;1.57;1.27;;;21.10;94.00;;;;;;5105087;27;20320;-36
2021/06/05 07:22:01;;;;;;;1.97;1.27;;;20.80;94.00;;;;;;5140704;27;20488;-36
2021/06/05 07:24:26;;;;;;;2.27;1.20;;;21.00;94.00;;;;;;5140863;27;20529;-36
2021/06/05 07:26:52;;;;;;;2.90;2.00;;;20.70;94.20;;;;;;5141293;27;20417;-36
2021/06/05 07:29:18;;;;;;;1.87;1.43;;;20.30;94.00;;;;;;5140697;27;20178;-35
2021/06/05 07:31:48;;;;;;;2.13;1.40;;;20.40;94.70;;;;;;5140686;27;20202;-35
2021/06/05 07:34:14;;;;;;;4.60;1.80;;;20.40;94.70;;;;;;5129072;27;20212;-36
2021/06/05 07:36:48;;;;;;;3.23;1.63;;;20.50;94.60;;;;;;5135713;27;20411;-36
2021/06/05 07:39:15;;;;;;;7.17;1.80;;;20.70;94.60;;;;;;5121544;27;20421;-36
2021/06/05 07:41:41;;;;;;;3.10;1.93;;;20.80;94.30;;;;;;5138077;27;20448;-36
2021/06/05 07:44:08;;;;;;;3.83;1.50;;;21.00;94.20;;;;;;5139386;27;20444;-34
2021/06/05 07:46:38;;;;;;;3.07;1.63;;;21.20;94.60;;;;;;5140670;27;20433;-35
2021/06/05 07:49:04;;;;;;;1.63;1.30;;;21.30;95.10;;;;;;5114214;28;20433;-37
2021/06/05 07:51:29;;;;;;;3.00;1.33;;;21.20;95.30;;;;;;5132766;27;20417;-38
2021/06/05 07:53:56;;;;;;;2.33;1.30;;;21.20;95.60;;;;;;5139886;27;20532;-36
2021/06/05 07:56:21;;;;;;;5.83;2.00;;;21.10;95.30;;;;;;5140100;27;20220;-36
2021/06/05 07:58:47;;;;;;;2.23;1.63;;;20.80;96.00;;;;;;5119747;27;20448;-36
2021/06/05 08:01:12;;;;;;;4.20;1.53;;;20.80;96.10;;;;;;5138432;27;20518;-36
2021/06/05 08:03:38;;;;;;;1.77;1.50;;;20.70;96.50;;;;;;5139312;27;20175;-36
2021/06/05 08:06:04;;;;;;;2.83;1.90;;;20.50;97.20;;;;;;5138885;27;20183;-37
2021/06/05 08:08:30;;;;;;;1.90;1.43;;;20.50;97.20;;;;;;5139378;27;20163;-36
2021/06/05 08:10:56;;;;;;;4.60;1.80;;;20.30;97.60;;;;;;5138819;27;20184;-35
2021/06/05 08:13:22;;;;;;;2.47;1.77;;;20.70;97.00;;;;;;5139842;27;20456;-37
2021/06/05 08:15:49;;;;;;;2.43;1.40;;;20.80;96.40;;;;;;5138088;27;20465;-36
2021/06/05 08:18:15;;;;;;;2.37;1.70;;;20.90;96.70;;;;;;5139851;27;20167;-37
2021/06/05 08:20:44;;;;;;;1.83;1.40;;;21.10;96.20;;;;;;5140128;27;20425;-37
2021/06/05 08:23:11;;;;;;;2.70;1.93;;;21.10;95.70;;;;;;5140891;27;20405;-35
2021/06/05 08:25:37;;;;;;;2.60;1.70;;;20.90;95.80;;;;;;5140070;27;20805;-34
2021/06/05 08:28:04;;;;;;;3.47;2.10;;;20.80;95.80;;;;;;5140397;27;20440;-36
2021/06/05 08:30:33;;;;;;;2.67;1.90;;;20.80;96.10;;;;;;5139557;27;20444;-37
2021/06/05 08:32:59;;;;;;;3.63;1.93;;;21.00;95.60;;;;;;5139233;27;20562;-36
2021/06/05 08:35:25;;;;;;;3.83;1.90;;;21.20;95.30;;;;;;5121646;27;20420;-36
2021/06/05 08:37:51;;;;;;;2.47;1.77;;;21.20;95.60;;;;;;5138924;27;20473;-36
2021/06/05 08:40:24;;;;;;;2.00;1.70;;;21.30;94.80;;;;;;5122606;27;20428;-38
2021/06/05 08:42:51;;;;;;;3.60;1.97;;;21.20;95.10;;;;;;5121884;27;20178;-36
2021/06/05 08:45:24;;;;;;;2.13;1.83;;;21.40;94.90;;;;;;5120917;27;20527;-37
2021/06/05 08:47:50;;;;;;;2.37;1.70;;;21.30;95.20;;;;;;5139745;27;20504;-37
2021/06/05 08:50:20;;;;;;;3.57;1.87;;;21.90;94.40;;;;;;5138720;27;20436;-37
2021/06/05 08:52:52;;;;;;;2.80;1.80;;;22.40;93.70;;;;;;5136726;27;20463;-36
2021/06/05 08:55:35;;;;;;;2.50;1.70;;;22.10;93.90;;;;;;5137223;27;20496;-36
2021/06/05 08:58:08;;;;;;;2.30;2.00;;;22.50;93.60;;;;;;5119645;27;20416;-36
2021/06/05 09:00:46;;;;;;;2.03;1.40;;;23.00;93.20;;;;;;5137170;27;20436;-37
2021/06/05 09:03:13;;;;;;;3.20;2.40;;;23.00;92.70;;;;;;5119957;27;20417;-37
2021/06/05 09:05:49;;;;;;;2.93;2.23;;;23.30;91.70;;;;;;5139934;27;20432;-37
2021/06/05 09:08:19;;;;;;;2.33;2.13;;;22.80;92.00;;;;;;5120480;28;20511;-37
2021/06/05 09:10:48;;;;;;;2.90;2.00;;;23.00;92.20;;;;;;5121421;27;20440;-38
2021/06/05 09:13:15;;;;;;;4.63;2.00;;;23.10;92.00;;;;;;5140081;27;20475;-36
2021/06/05 09:15:41;;;;;;;2.70;1.80;;;23.10;92.30;;;;;;5138412;27;20969;-36
2021/06/05 09:18:10;;;;;;;2.73;1.70;;;23.50;91.60;;;;;;5138098;27;20561;-36
2021/06/05 09:20:44;;;;;;;2.10;1.77;;;22.80;92.40;;;;;;5138033;27;20428;-36
2021/06/05 09:23:32;;;;;;;2.80;1.93;;;22.80;92.60;;;;;;5139650;27;20408;-36
2021/06/05 09:26:24;;;;;;;2.33;1.70;;;22.50;92.20;;;;;;5137891;28;20436;-36
2021/06/05 09:29:11;;;;;;;1.73;1.60;;;22.20;92.80;;;;;;5125946;27;20466;-36
2021/06/05 09:31:51;;;;;;;2.40;1.67;;;22.20;92.90;;;;;;5143774;27;20423;-36
2021/06/05 09:34:16;;;;;;;2.60;2.40;;;22.00;93.20;;;;;;5145072;27;20504;-36
2021/06/05 09:36:43;;;;;;;2.20;1.60;;;21.40;93.90;;;;;;5144302;27;20443;-36
2021/06/05 09:39:15;;;;;;;5.00;2.60;;;21.20;95.90;;;;;;5143106;27;20267;-36
2021/06/05 09:41:44;;;;;;;4.50;2.90;;;21.20;96.00;;;;;;5145563;27;20660;-35
2021/06/05 09:44:28;;;;;;;3.77;2.43;;;21.00;96.60;;;;;;5146025;27;20412;-35
2021/06/05 09:46:54;;;;;;;2.60;1.70;;;21.50;95.80;;;;;;5145418;27;20436;-36
2021/06/05 09:49:34;;;;;;;2.43;2.10;;;21.20;96.20;;;;;;5145390;27;20487;-35
2021/06/05 09:52:08;;;;;;;3.50;1.90;;;21.30;95.90;;;;;;5145840;27;20189;-36
2021/06/05 09:54:50;;;;;;;4.37;2.43;;;21.40;95.30;;;;;;5145119;27;20589;-44
2021/06/05 09:57:31;;;;;;;5.90;2.40;;;21.30;96.50;;;;;;5144461;27;20412;-36
2021/06/05 10:00:34;;;;;;;2.30;1.90;;;21.40;96.70;;;;;;5146216;27;20424;-37
2021/06/05 10:03:25;;;;;;;3.33;1.87;;;21.30;96.20;;;;;;5123503;27;20930;-36
2021/06/05 10:05:52;;;;;;;2.13;1.93;;;21.50;97.30;;;;;;5145577;27;20690;-36
2021/06/05 10:08:22;;;;;;;2.83;2.53;;;21.20;97.00;;;;;;5145612;27;20837;-36
2021/06/05 10:10:51;;;;;;;2.40;2.20;;;21.20;97.70;;;;;;5126400;27;20872;-36
2021/06/05 10:13:27;;;;;;;2.07;1.87;;;21.00;98.00;;;;;;5128646;27;20464;-36
2021/06/05 10:15:58;;;;;;;2.47;2.27;;;21.30;97.50;;;;;;5126907;27;20574;-35
2021/06/05 10:18:32;;;;;;;2.80;2.50;;;21.30;98.40;;;;;;5126994;27;20416;-36
2021/06/05 10:21:13;;;;;;;2.73;2.40;;;21.80;98.40;;;;;;5125911;27;20428;-36
2021/06/05 10:23:43;;;;;;;2.43;1.97;;;22.10;97.10;;;;;;5144249;27;20777;-36
2021/06/05 10:26:34;;;;;;;2.13;1.93;;;22.10;95.50;;;;;;5120341;27;20437;-35
2021/06/05 10:29:14;;;;;;;3.17;2.53;;;22.10;96.10;;;;;;5124588;27;20437;-36
2021/06/05 10:31:41;;;;;;;2.97;2.23;;;22.10;96.90;;;;;;5129162;27;20417;-36
2021/06/05 10:34:12;;;;;;;2.10;1.87;;;21.60;96.50;;;;;;5128917;27;20586;-37
2021/06/05 10:36:43;;;;;;;2.83;2.57;;;21.80;97.30;;;;;;5126424;27;20423;-36
2021/06/05 10:39:21;;;;;;;2.10;1.90;;;22.20;96.40;;;;;;5140987;27;20493;-36
2021/06/05 10:41:59;;;;;;;4.10;2.40;;;22.50;95.00;;;;;;5122501;27;20420;-37
2021/06/05 10:44:24;;;;;;;3.77;2.00;;;22.80;94.70;;;;;;5141790;27;20456;-36
2021/06/05 10:47:08;;;;;;;2.80;2.20;;;21.80;95.90;;;;;;5142208;27;20417;-38
2021/06/05 10:49:37;;;;;;;3.13;2.10;;;22.40;95.40;;;;;;5122704;27;20270;-37
2021/06/05 10:52:11;;;;;;;2.50;2.20;;;22.90;94.20;;;;;;5143327;27;20491;-35
2021/06/05 10:54:46;;;;;;;1.90;1.77;;;23.30;93.00;;;;;;5122739;27;20500;-36
2021/06/05 10:57:18;;;;;;;2.80;2.13;;;23.30;93.80;;;;;;5123954;27;20401;-37
2021/06/05 11:00:06;;;;;;;2.80;2.13;;;23.80;92.50;;;;;;5140375;27;20416;-36
2021/06/05 11:02:49;;;;;;;2.30;2.10;;;24.00;92.90;;;;;;5141504;27;20503;-37
2021/06/05 11:05:18;;;;;;;3.90;2.23;;;24.60;91.70;;;;;;5141073;27;20436;-36
2021/06/05 11:07:46;;;;;;;3.17;2.23;;;25.00;91.80;;;;;;5141364;27;20879;-37
2021/06/05 11:10:50;;;;;;;2.27;1.63;;;25.70;90.60;;;;;;5142430;27;20714;-38
2021/06/05 11:13:37;;;;;;;1.90;1.77;;;25.70;88.80;;;;;;5140674;27;20452;-37
2021/06/05 11:16:13;;;;;;;2.53;1.90;;;26.00;88.20;;;;;;5137877;27;20448;-37
2021/06/05 11:18:55;;;;;;;2.87;2.60;;;26.00;88.10;;;;;;5139345;27;20433;-35
2021/06/05 11:21:24;;;;;;;4.37;2.43;;;25.00;90.60;;;;;;5119339;27;20737;-36
2021/06/05 11:23:56;;;;;;;2.37;2.17;;;23.70;92.20;;;;;;5137851;27;20408;-35
2021/06/05 11:26:44;;;;;;;2.90;2.57;;;23.70;93.20;;;;;;5138227;27;20413;-36
2021/06/05 11:29:18;;;;;;;2.60;2.03;;;24.20;92.60;;;;;;5141881;27;20734;-36
2021/06/05 11:31:52;;;;;;;2.50;2.30;;;24.10;92.30;;;;;;5137932;27;20419;-36
2021/06/05 11:34:36;;;;;;;3.23;2.73;;;24.00;92.50;;;;;;5119944;27;20481;-43
2021/06/05 11:37:14;;;;;;;2.23;1.90;;;23.50;93.20;;;;;;5139408;27;20429;-36
2021/06/05 11:39:53;;;;;;;2.17;1.87;;;24.40;93.00;;;;;;5139272;27;21069;-37
2021/06/05 11:42:21;;;;;;;2.40;2.20;;;25.50;90.90;;;;;;5122137;27;20420;-36
2021/06/05 11:44:50;;;;;;;2.40;1.80;;;26.80;87.70;;;;;;5140121;27;20421;-37
2021/06/05 11:47:15;;;;;;;1.80;1.70;;;26.50;85.60;;;;;;5142835;27;20852;-37
2021/06/05 11:49:41;;;;;;;2.00;1.80;;;25.90;84.50;;;;;;5139204;27;20472;-36
2021/06/05 11:52:29;;;;;;;2.07;1.87;;;25.40;88.20;;;;;;5140734;27;20254;-35
2021/06/05 11:55:06;;;;;;;1.80;1.70;;;25.00;90.30;;;;;;5140957;27;20536;-36
2021/06/05 11:57:44;;;;;;;1.80;1.47;;;25.10;90.30;;;;;;5141029;27;20750;-36
2021/06/05 12:00:13;;;;;;;2.10;1.90;;;24.20;91.50;;;;;;5139395;27;20440;-37
2021/06/05 12:02:45;;;;;;;2.30;1.63;;;24.50;91.00;;;;;;5142237;27;20446;-38
2021/06/05 12:05:23;;;;;;;2.40;1.63;;;23.50;92.70;;;;;;5139518;27;20876;-36
2021/06/05 12:07:49;;;;;;;1.40;1.30;;;23.40;92.40;;;;;;5139244;27;20421;-36
2021/06/05 12:10:37;;;;;;;1.50;1.33;;;23.30;92.90;;;;;;5139847;27;20501;-37
2021/06/05 12:13:05;;;;;;;2.33;1.70;;;23.40;92.40;;;;;;5139631;27;20467;-36
2021/06/05 12:15:40;;;;;;;1.77;1.37;;;22.90;92.20;;;;;;5138649;27;20539;-36
2021/06/05 12:18:26;;;;;;;1.30;1.20;;;22.70;92.80;;;;;;5138505;27;20447;-36
2021/06/05 12:20:59;;;;;;;1.20;1.10;;;22.50;92.80;;;;;;5122664;27;20433;-36
2021/06/05 12:23:31;;;;;;;1.67;1.47;;;22.70;92.90;;;;;;5137938;27;20780;-35
2021/06/05 12:26:03;;;;;;;1.93;1.40;;;22.40;92.60;;;;;;5137448;27;20452;-36
2021/06/05 12:28:34;;;;;;;1.33;1.20;;;22.10;92.80;;;;;;5142189;27;20416;-36
2021/06/05 12:31:17;;;;;;;1.50;1.40;;;21.70;93.40;;;;;;5138789;27;20850;-35
2021/06/05 12:33:54;;;;;;;1.87;1.53;;;21.40;94.50;;;;;;5137469;27;20552;-36
2021/06/05 12:36:21;;;;;;;1.77;1.43;;;21.30;95.20;;;;;;5137535;27;20515;-35
2021/06/05 12:38:57;;;;;;;1.60;1.40;;;21.80;94.80;;;;;;5120258;27;20490;-36
2021/06/05 12:41:29;;;;;;;1.60;1.30;;;21.30;94.80;;;;;;5139871;27;20397;-36
2021/06/05 12:43:56;;;;;;;4.73;1.47;;;21.80;95.20;;;;;;5120517;27;20436;-35
2021/06/05 12:46:33;;;;;;;1.80;1.60;;;21.70;95.50;;;;;;5139347;27;20410;-35
2021/06/05 12:49:05;;;;;;;1.77;1.57;;;22.10;95.30;;;;;;5120391;27;20853;-36
2021/06/05 12:51:33;;;;;;;1.93;1.73;;;22.40;94.80;;;;;;5121573;27;20678;-36
2021/06/05 12:54:03;;;;;;;1.10;1.00;;;22.60;93.90;;;;;;5121762;27;20496;-38
2021/06/05 12:56:36;;;;;;;1.33;1.20;;;22.90;93.40;;;;;;5138396;27;20489;-34
2021/06/05 12:59:06;;;;;;;1.20;1.10;;;23.70;92.80;;;;;;5140086;27;20436;-36
2021/06/05 13:01:36;;;;;;;4.17;1.30;;;24.00;92.20;;;;;;5139477;27;20748;-35
2021/06/05 13:04:04;;;;;;;1.70;1.50;;;24.10;92.00;;;;;;5139007;27;20437;-36